Time;durP1;ratioP1;P1;durP2;ratioP2;P2;SDS_P1;SDS_P2;PMS_P1;PMS_P2;Temp;Humidity;BMP_temperature;BMP_pressure;BME280_temperature;BME280_humidity;BME280_pressure;Samples;Min_cycle;Max_cycle;Signal;HPM_P1;HPM_P2
2021/08/13 00:00:58;;;;;;;12.17;5.83;;;21.00;71.20;;;;;;10327813;28;20614;-60
2021/08/13 00:06:20;;;;;;;6.70;5.73;;;21.00;71.30;;;;;;10328195;28;20218;-60
2021/08/13 00:11:42;;;;;;;6.97;5.63;;;21.00;71.20;;;;;;10328161;28;20211;-61
2021/08/13 00:17:06;;;;;;;5.50;4.67;;;21.00;71.20;;;;;;10344210;28;20199;-61
2021/08/13 00:22:28;;;;;;;5.30;4.80;;;21.00;71.20;;;;;;10348248;28;20223;-62
2021/08/13 00:27:50;;;;;;;6.20;4.97;;;21.00;71.20;;;;;;10372146;28;20700;-60
2021/08/13 00:33:13;;;;;;;6.00;5.40;;;21.00;71.10;;;;;;10346061;28;20721;-60
2021/08/13 00:38:35;;;;;;;6.07;4.70;;;21.00;71.10;;;;;;10334030;28;20195;-61
2021/08/13 00:43:57;;;;;;;6.83;5.20;;;21.00;71.20;;;;;;10335340;28;20215;-61
2021/08/13 00:49:21;;;;;;;7.43;5.57;;;21.00;71.30;;;;;;10334478;28;20575;-61
2021/08/13 00:54:43;;;;;;;6.53;4.70;;;21.00;71.30;;;;;;10361122;28;20199;-61
2021/08/13 01:00:06;;;;;;;6.23;5.63;;;21.00;71.30;;;;;;10331951;28;20226;-62
2021/08/13 01:05:30;;;;;;;5.30;4.80;;;21.00;71.30;;;;;;10337697;28;20233;-61
2021/08/13 01:11:00;;;;;;;8.37;5.73;;;21.00;71.40;;;;;;10306793;28;20210;-61
2021/08/13 01:16:26;;;;;;;8.07;5.10;;;21.00;71.50;;;;;;10294527;28;20184;-60
2021/08/13 01:21:53;;;;;;;6.83;5.20;;;21.00;71.60;;;;;;10328229;28;20230;-60
2021/08/13 01:27:19;;;;;;;6.60;5.60;;;21.00;71.60;;;;;;10355288;28;20214;-60
2021/08/13 01:32:47;;;;;;;6.00;5.40;;;21.00;71.70;;;;;;10325547;28;20260;-61
2021/08/13 01:38:13;;;;;;;7.67;5.60;;;21.00;71.70;;;;;;10333004;28;20784;-63
2021/08/13 01:43:37;;;;;;;6.60;5.53;;;21.00;71.60;;;;;;10333974;28;20231;-61
2021/08/13 01:49:02;;;;;;;5.90;5.30;;;21.00;71.60;;;;;;10331218;28;20254;-61
2021/08/13 01:54:25;;;;;;;6.17;5.40;;;21.00;71.60;;;;;;10352968;28;20197;-62
2021/08/13 01:59:47;;;;;;;5.53;5.03;;;21.00;71.70;;;;;;10372423;28;20703;-62
2021/08/13 02:05:13;;;;;;;5.73;5.20;;;21.00;71.60;;;;;;10364932;28;20214;-61
2021/08/13 02:10:37;;;;;;;5.60;5.00;;;21.00;71.60;;;;;;10331924;28;20214;-61
2021/08/13 02:16:05;;;;;;;6.80;5.43;;;21.00;71.50;;;;;;10331364;28;20196;-62
2021/08/13 02:21:31;;;;;;;6.63;5.73;;;21.00;71.50;;;;;;10328126;28;20269;-62
2021/08/13 02:26:54;;;;;;;5.40;4.80;;;21.00;71.40;;;;;;10329456;28;20206;-61
2021/08/13 02:32:16;;;;;;;6.17;5.23;;;21.00;71.30;;;;;;10320965;28;20577;-61
2021/08/13 02:37:46;;;;;;;5.80;4.90;;;21.00;71.30;;;;;;10329961;28;20558;-62
2021/08/13 02:43:16;;;;;;;5.70;5.10;;;21.00;71.20;;;;;;10331357;28;20681;-61
2021/08/13 02:48:40;;;;;;;6.50;4.63;;;21.00;71.10;;;;;;10328740;28;20219;-63
2021/08/13 02:54:04;;;;;;;7.33;5.50;;;21.00;71.00;;;;;;10352155;28;20225;-62
2021/08/13 02:59:30;;;;;;;5.80;5.20;;;21.00;70.80;;;;;;10373513;28;20219;-62
2021/08/13 03:04:55;;;;;;;5.57;5.00;;;21.00;70.90;;;;;;10371893;28;20604;-61
2021/08/13 03:10:19;;;;;;;5.50;4.90;;;21.00;70.70;;;;;;10322955;28;20593;-61
2021/08/13 03:15:42;;;;;;;5.40;4.90;;;21.00;70.60;;;;;;10336489;28;20195;-62
2021/08/13 03:21:04;;;;;;;5.17;4.63;;;21.00;70.50;;;;;;10331018;28;20211;-60
2021/08/13 03:26:28;;;;;;;4.80;4.40;;;21.00;70.40;;;;;;10348997;28;20219;-61
2021/08/13 03:31:50;;;;;;;5.43;4.93;;;21.00;70.30;;;;;;10327260;28;20634;-61
2021/08/13 03:37:12;;;;;;;5.80;4.30;;;21.00;70.30;;;;;;10340818;28;20569;-61
2021/08/13 03:42:36;;;;;;;6.70;4.73;;;21.00;70.20;;;;;;10368710;28;20231;-60
2021/08/13 03:47:58;;;;;;;5.47;4.97;;;21.00;70.10;;;;;;10366851;28;20226;-61
2021/08/13 03:53:20;;;;;;;5.43;4.60;;;21.00;70.10;;;;;;10345583;28;20225;-60
2021/08/13 03:58:44;;;;;;;4.70;4.20;;;21.00;70.00;;;;;;10355494;28;20187;-61
2021/08/13 04:04:06;;;;;;;5.73;4.70;;;21.00;69.90;;;;;;10336106;28;20563;-60
2021/08/13 04:09:28;;;;;;;5.97;4.93;;;21.00;69.80;;;;;;10344763;28;20708;-61
2021/08/13 04:14:52;;;;;;;5.30;4.80;;;21.00;70.40;;;;;;10336574;28;20199;-61
2021/08/13 04:20:14;;;;;;;8.20;4.57;;;20.80;72.70;;;;;;10334714;28;20222;-60
2021/08/13 04:25:36;;;;;;;5.87;4.73;;;20.70;73.60;;;;;;10335528;28;20697;-61
2021/08/13 04:31:00;;;;;;;5.50;4.70;;;20.60;74.10;;;;;;10334164;28;20211;-61
2021/08/13 04:36:22;;;;;;;4.90;4.40;;;20.50;74.30;;;;;;10346062;28;20206;-61
2021/08/13 04:41:44;;;;;;;5.80;4.33;;;20.40;74.40;;;;;;10356733;28;20226;-61
2021/08/13 04:47:07;;;;;;;5.77;4.63;;;20.40;74.60;;;;;;10359752;28;20214;-61
2021/08/13 04:52:29;;;;;;;4.87;4.37;;;20.40;74.70;;;;;;10360390;28;20214;-61
2021/08/13 04:57:52;;;;;;;5.17;4.47;;;20.40;74.90;;;;;;10375686;28;20682;-60
2021/08/13 05:03:16;;;;;;;5.27;4.77;;;20.40;75.00;;;;;;10369016;28;20225;-59
2021/08/13 05:08:39;;;;;;;4.73;4.23;;;20.30;75.00;;;;;;10344284;28;20234;-59
2021/08/13 05:14:01;;;;;;;5.90;5.20;;;20.40;75.10;;;;;;10360069;28;20205;-61
2021/08/13 05:19:24;;;;;;;6.40;4.90;;;20.40;75.10;;;;;;10373907;28;20214;-60
2021/08/13 05:24:46;;;;;;;5.80;4.97;;;20.40;75.30;;;;;;10374309;28;20222;-60
2021/08/13 05:30:10;;;;;;;5.60;4.83;;;20.30;75.30;;;;;;10357215;28;20229;-61
2021/08/13 05:35:37;;;;;;;6.83;4.80;;;20.40;75.50;;;;;;10335219;28;20693;-59
2021/08/13 05:40:59;;;;;;;5.37;4.87;;;20.30;75.50;;;;;;10328882;28;20226;-62
2021/08/13 05:46:21;;;;;;;6.53;5.30;;;20.30;75.70;;;;;;10336402;28;20219;-60
2021/08/13 05:51:44;;;;;;;7.47;4.77;;;20.30;75.80;;;;;;10340149;28;20226;-60
2021/08/13 05:57:07;;;;;;;7.20;5.57;;;20.30;76.00;;;;;;10359140;28;20666;-59
2021/08/13 06:02:29;;;;;;;6.00;5.30;;;20.30;76.20;;;;;;10330620;28;20223;-60
2021/08/13 06:07:53;;;;;;;6.20;5.10;;;20.30;76.40;;;;;;10331695;28;20227;-66
2021/08/13 06:13:16;;;;;;;6.97;5.73;;;20.30;76.60;;;;;;10329833;28;20212;-66
2021/08/13 06:18:38;;;;;;;8.83;6.20;;;20.30;76.90;;;;;;10331589;28;20259;-66
2021/08/13 06:24:02;;;;;;;8.07;6.50;;;20.30;77.20;;;;;;10329443;28;20206;-65
2021/08/13 06:29:24;;;;;;;7.50;6.80;;;20.30;77.40;;;;;;10350213;28;20233;-65
2021/08/13 06:34:46;;;;;;;6.63;6.03;;;20.30;77.40;;;;;;10371533;28;20199;-64
2021/08/13 06:40:11;;;;;;;8.77;6.53;;;20.30;77.30;;;;;;10364990;28;20222;-65
2021/08/13 06:45:33;;;;;;;8.13;6.40;;;20.30;77.40;;;;;;10371343;28;20211;-65
2021/08/13 06:50:55;;;;;;;6.17;5.57;;;20.30;77.30;;;;;;10371730;28;20218;-65
2021/08/13 06:56:19;;;;;;;6.33;5.73;;;20.40;77.00;;;;;;10332969;28;20194;-65
2021/08/13 07:01:41;;;;;;;7.00;5.63;;;20.40;76.70;;;;;;10327826;28;20701;-65
2021/08/13 07:07:03;;;;;;;6.23;5.50;;;20.40;76.50;;;;;;10329671;28;20689;-64
2021/08/13 07:12:27;;;;;;;5.80;5.10;;;20.40;76.40;;;;;;10334141;28;20600;-65
2021/08/13 07:17:49;;;;;;;6.20;5.30;;;20.40;76.40;;;;;;10350712;28;20562;-64
2021/08/13 07:23:11;;;;;;;5.93;5.43;;;20.40;76.30;;;;;;10328009;28;20733;-62
2021/08/13 07:28:34;;;;;;;5.23;4.73;;;20.50;76.40;;;;;;10349180;28;20222;-60
2021/08/13 07:33:56;;;;;;;5.00;4.53;;;20.50;74.80;;;;;;10331947;28;20217;-61
2021/08/13 07:39:19;;;;;;;4.93;4.43;;;20.60;72.90;;;;;;10335442;28;20225;-60
2021/08/13 07:44:42;;;;;;;5.20;4.53;;;20.70;71.40;;;;;;10341576;28;20685;-62
2021/08/13 07:50:05;;;;;;;5.53;4.20;;;20.80;70.70;;;;;;10337946;28;20218;-62
2021/08/13 07:55:27;;;;;;;4.93;4.43;;;20.70;71.40;;;;;;10357436;28;20199;-62
2021/08/13 08:00:52;;;;;;;4.60;4.20;;;20.70;71.60;;;;;;10327474;28;20215;-61
2021/08/13 08:06:14;;;;;;;6.60;4.30;;;20.80;70.70;;;;;;10329222;28;20215;-62
2021/08/13 08:11:37;;;;;;;5.03;4.33;;;20.80;71.30;;;;;;10327950;28;20266;-62
2021/08/13 08:17:00;;;;;;;5.97;4.03;;;20.70;72.10;;;;;;10328113;28;20188;-63
2021/08/13 08:22:22;;;;;;;4.50;4.10;;;20.80;71.00;;;;;;10326171;28;20223;-61
2021/08/13 08:27:44;;;;;;;4.93;4.43;;;20.70;71.50;;;;;;10347004;28;20223;-62
2021/08/13 08:33:07;;;;;;;4.20;3.80;;;20.70;72.20;;;;;;10288729;28;20231;-62
2021/08/13 08:38:30;;;;;;;4.53;4.13;;;20.70;71.20;;;;;;10292326;28;20211;-62
2021/08/13 08:43:52;;;;;;;5.03;4.50;;;20.80;71.80;;;;;;10297092;28;20242;-61
2021/08/13 08:49:18;;;;;;;4.27;3.83;;;20.70;72.50;;;;;;10295225;28;20223;-62
2021/08/13 08:54:43;;;;;;;4.90;4.00;;;20.80;71.60;;;;;;10329878;28;20195;-62
2021/08/13 09:00:06;;;;;;;5.00;4.50;;;20.80;70.90;;;;;;10334884;28;20725;-63
2021/08/13 09:05:29;;;;;;;5.27;4.30;;;20.70;71.40;;;;;;10343881;28;20625;-63
2021/08/13 09:10:52;;;;;;;4.93;4.37;;;20.70;71.90;;;;;;10334296;28;20226;-63
2021/08/13 09:16:16;;;;;;;6.57;4.67;;;20.80;71.10;;;;;;10334622;28;20191;-62
2021/08/13 09:21:39;;;;;;;5.67;4.10;;;20.80;71.60;;;;;;10331053;28;21024;-63
2021/08/13 09:27:16;;;;;;;4.80;4.40;;;20.70;72.00;;;;;;10318116;28;20211;-62
2021/08/13 09:32:38;;;;;;;5.17;4.67;;;20.70;70.60;;;;;;10330817;28;20242;-62
2021/08/13 09:38:03;;;;;;;4.60;4.20;;;20.80;71.50;;;;;;10340569;28;20680;-63
2021/08/13 09:43:25;;;;;;;5.07;4.37;;;20.70;72.20;;;;;;10333893;28;20245;-63
2021/08/13 09:48:47;;;;;;;9.77;4.67;;;20.70;71.10;;;;;;10330975;28;20222;-63
2021/08/13 09:54:12;;;;;;;9.23;5.30;;;20.80;71.60;;;;;;10329115;28;20198;-64
2021/08/13 09:59:34;;;;;;;7.73;5.67;;;20.80;73.80;;;;;;10332295;28;20215;-63
2021/08/13 10:04:56;;;;;;;8.57;6.33;;;20.90;73.30;;;;;;10332000;28;20424;-64
2021/08/13 10:10:24;;;;;;;6.67;5.70;;;21.00;72.00;;;;;;10319381;28;20215;-63
2021/08/13 10:15:47;;;;;;;11.27;7.47;;;21.00;73.10;;;;;;10330559;28;21039;-63
2021/08/13 10:21:09;;;;;;;8.80;6.63;;;21.20;73.30;;;;;;10329866;28;20567;-63
2021/08/13 10:26:33;;;;;;;8.20;6.10;;;21.20;71.40;;;;;;10337270;28;20214;-63
2021/08/13 10:31:56;;;;;;;8.70;7.03;;;21.10;72.50;;;;;;10357139;28;20430;-65
2021/08/13 10:37:21;;;;;;;8.57;6.50;;;21.20;73.70;;;;;;10353060;28;20573;-63
2021/08/13 10:42:47;;;;;;;8.03;5.40;;;21.30;74.50;;;;;;10371056;28;20226;-62
2021/08/13 10:48:12;;;;;;;7.57;5.63;;;21.20;72.30;;;;;;10371845;28;20214;-63
2021/08/13 10:53:37;;;;;;;6.57;5.63;;;21.20;71.80;;;;;;10353480;28;20234;-63
2021/08/13 10:59:00;;;;;;;7.13;5.47;;;21.00;72.40;;;;;;10328426;28;20696;-62
2021/08/13 11:04:39;;;;;;;7.00;5.77;;;21.00;73.00;;;;;;10332135;28;20696;-62
2021/08/13 11:10:01;;;;;;;8.40;5.83;;;21.00;71.60;;;;;;10324183;28;20227;-62
2021/08/13 11:15:35;;;;;;;7.10;5.80;;;21.00;72.70;;;;;;10334121;28;20199;-62
2021/08/13 11:20:58;;;;;;;6.50;5.73;;;20.90;73.10;;;;;;10329622;28;20544;-62
2021/08/13 11:26:59;;;;;;;5.67;5.00;;;21.00;72.00;;;;;;10334081;28;20222;-62
2021/08/13 11:32:28;;;;;;;7.27;6.27;;;21.00;72.60;;;;;;10363113;28;20218;-61
2021/08/13 11:37:53;;;;;;;8.83;6.03;;;20.90;73.20;;;;;;10369704;28;20201;-62
2021/08/13 11:43:17;;;;;;;6.23;5.63;;;20.90;72.00;;;;;;10333347;28;20233;-63
2021/08/13 11:48:41;;;;;;;7.67;5.80;;;21.00;72.40;;;;;;10329432;28;20318;-62
2021/08/13 11:54:32;;;;;;;5.80;5.20;;;20.90;72.90;;;;;;10349405;28;20198;-61
2021/08/13 11:59:54;;;;;;;6.70;6.00;;;20.90;72.00;;;;;;10369833;28;20229;-63
2021/08/13 12:05:17;;;;;;;6.33;5.70;;;21.00;72.60;;;;;;10364087;28;20624;-63
2021/08/13 12:10:45;;;;;;;5.90;5.30;;;20.90;73.00;;;;;;10357088;28;20222;-63
2021/08/13 12:16:07;;;;;;;6.73;6.10;;;20.90;72.80;;;;;;10335913;28;20682;-62
2021/08/13 12:21:31;;;;;;;9.63;6.30;;;20.90;72.00;;;;;;10343660;28;20609;-62
2021/08/13 12:26:57;;;;;;;7.40;5.73;;;20.90;72.70;;;;;;10343447;28;20218;-62
2021/08/13 12:32:19;;;;;;;6.63;5.83;;;20.90;73.10;;;;;;10375709;28;20298;-60
2021/08/13 12:37:43;;;;;;;5.90;5.37;;;20.90;71.90;;;;;;10376428;28;20197;-61
2021/08/13 12:43:05;;;;;;;7.47;6.63;;;20.90;72.60;;;;;;10368683;28;20278;-63
2021/08/13 12:48:28;;;;;;;7.10;6.03;;;20.90;73.20;;;;;;10341599;28;20238;-62
2021/08/13 12:53:51;;;;;;;7.20;5.40;;;21.00;72.20;;;;;;10352435;28;20635;-62
2021/08/13 12:59:13;;;;;;;8.23;6.10;;;21.00;72.60;;;;;;10369867;28;20191;-64
2021/08/13 13:04:40;;;;;;;6.03;5.40;;;20.90;73.10;;;;;;10375457;28;20205;-63
2021/08/13 13:10:15;;;;;;;6.97;5.87;;;21.00;72.50;;;;;;10359564;28;20227;-62
2021/08/13 13:15:37;;;;;;;6.80;6.10;;;21.00;72.40;;;;;;10335802;28;20199;-63
2021/08/13 13:20:59;;;;;;;6.87;6.17;;;21.00;73.00;;;;;;10327643;28;20215;-64
2021/08/13 13:26:23;;;;;;;7.10;5.53;;;20.90;73.70;;;;;;10335171;28;20696;-63
2021/08/13 13:31:45;;;;;;;6.77;5.47;;;21.00;72.30;;;;;;10367519;28;20221;-64
2021/08/13 13:37:16;;;;;;;5.90;5.30;;;21.00;72.40;;;;;;10368269;28;20557;-63
2021/08/13 13:42:39;;;;;;;7.60;6.23;;;21.00;72.90;;;;;;10368670;28;20237;-62
2021/08/13 13:48:02;;;;;;;6.50;5.80;;;21.00;73.50;;;;;;10339973;28;20556;-62
2021/08/13 13:53:24;;;;;;;6.60;5.93;;;21.00;72.20;;;;;;10323831;28;20219;-62
2021/08/13 13:58:47;;;;;;;7.97;6.23;;;21.00;72.50;;;;;;10328722;28;20594;-63
2021/08/13 14:04:09;;;;;;;8.67;6.07;;;21.00;73.40;;;;;;10330073;28;20582;-63
2021/08/13 14:09:31;;;;;;;8.17;5.97;;;21.00;72.40;;;;;;10330341;28;20732;-63
2021/08/13 14:14:55;;;;;;;6.57;5.90;;;21.00;72.00;;;;;;10333445;28;20555;-63
2021/08/13 14:20:17;;;;;;;8.60;6.37;;;21.00;72.60;;;;;;10332336;28;20706;-63
2021/08/13 14:25:41;;;;;;;6.43;5.70;;;21.00;72.50;;;;;;10331312;28;20665;-63
2021/08/13 14:31:04;;;;;;;5.67;5.17;;;21.00;71.90;;;;;;10308644;28;20215;-63
2021/08/13 14:36:26;;;;;;;6.70;5.70;;;21.00;72.50;;;;;;10334573;28;20573;-63
2021/08/13 14:41:48;;;;;;;6.17;5.57;;;21.00;72.60;;;;;;10355468;28;20229;-63
2021/08/13 14:47:12;;;;;;;6.50;5.80;;;21.00;71.80;;;;;;10365768;28;20221;-63
2021/08/13 14:52:34;;;;;;;8.60;6.20;;;21.00;72.50;;;;;;10362471;28;20312;-64
2021/08/13 14:57:57;;;;;;;5.83;5.27;;;20.90;72.40;;;;;;10324144;28;20338;-63
2021/08/13 15:03:20;;;;;;;5.77;5.17;;;21.00;72.00;;;;;;10331115;28;20222;-62
2021/08/13 15:08:42;;;;;;;6.90;6.03;;;20.90;72.40;;;;;;10336705;28;20223;-63
2021/08/13 15:14:08;;;;;;;6.30;5.40;;;21.00;72.40;;;;;;10330350;28;20301;-63
2021/08/13 15:19:32;;;;;;;6.27;5.63;;;21.00;71.70;;;;;;10329712;28;20298;-63
2021/08/13 15:24:54;;;;;;;6.50;5.90;;;20.90;72.20;;;;;;10327109;28;20749;-63
2021/08/13 15:30:16;;;;;;;5.83;5.33;;;21.00;72.20;;;;;;10326940;28;20210;-63
2021/08/13 15:35:40;;;;;;;6.50;5.13;;;20.90;71.90;;;;;;10346301;28;20205;-62
2021/08/13 15:41:02;;;;;;;5.27;4.67;;;20.90;72.40;;;;;;10345072;28;20221;-63
2021/08/13 15:46:24;;;;;;;6.27;5.30;;;21.00;72.10;;;;;;10348565;28;20207;-63
2021/08/13 15:51:48;;;;;;;6.93;5.47;;;21.00;71.80;;;;;;10354433;28;20214;-63
2021/08/13 15:57:10;;;;;;;6.80;5.07;;;21.00;72.20;;;;;;10358019;28;20198;-63
2021/08/13 16:02:32;;;;;;;4.87;4.37;;;20.90;72.00;;;;;;10356158;28;20506;-63
2021/08/13 16:08:00;;;;;;;6.97;4.50;;;21.00;72.00;;;;;;10357082;28;20222;-63
2021/08/13 16:13:22;;;;;;;5.00;4.20;;;21.00;72.30;;;;;;10353013;28;20232;-63
2021/08/13 16:18:45;;;;;;;5.00;4.50;;;21.00;72.00;;;;;;10353564;28;20190;-63
2021/08/13 16:24:09;;;;;;;4.60;4.20;;;21.00;71.80;;;;;;10336937;28;20241;-63
2021/08/13 16:29:31;;;;;;;4.53;4.03;;;21.00;72.20;;;;;;10332036;28;20215;-61
2021/08/13 16:34:53;;;;;;;4.03;3.70;;;21.00;72.20;;;;;;10334847;28;20191;-63
2021/08/13 16:40:17;;;;;;;4.33;3.93;;;21.00;71.70;;;;;;10339036;28;20222;-63
2021/08/13 16:45:39;;;;;;;3.90;3.50;;;21.00;72.40;;;;;;10342344;28;20202;-62
2021/08/13 16:51:01;;;;;;;4.10;3.57;;;21.00;72.70;;;;;;10369346;28;20229;-61
2021/08/13 16:56:27;;;;;;;3.63;3.23;;;21.00;71.70;;;;;;10342993;28;20203;-64
2021/08/13 17:01:49;;;;;;;4.23;3.50;;;21.00;72.40;;;;;;10343973;28;20617;-60
2021/08/13 17:07:11;;;;;;;3.97;3.57;;;21.00;72.70;;;;;;10332649;28;20226;-62
2021/08/13 17:12:35;;;;;;;3.93;3.50;;;21.10;71.60;;;;;;10328820;28;20211;-62
2021/08/13 17:17:57;;;;;;;3.87;3.30;;;21.00;72.30;;;;;;10359258;28;20206;-61
2021/08/13 17:23:19;;;;;;;4.10;3.43;;;21.00;73.10;;;;;;10338421;28;20215;-60
2021/08/13 17:28:46;;;;;;;3.17;2.80;;;21.00;72.70;;;;;;10332611;28;20219;-61
2021/08/13 17:34:08;;;;;;;4.00;3.20;;;21.10;71.90;;;;;;10333975;28;20199;-61
2021/08/13 17:39:30;;;;;;;3.87;3.47;;;21.00;72.40;;;;;;10333387;28;20219;-60
2021/08/13 17:44:54;;;;;;;4.03;3.00;;;21.00;72.60;;;;;;10357038;28;20711;-61
2021/08/13 17:50:16;;;;;;;3.27;2.97;;;21.10;72.00;;;;;;10368410;28;20604;-61
2021/08/13 17:55:38;;;;;;;3.90;2.90;;;21.10;72.60;;;;;;10340038;28;20198;-65
2021/08/13 18:01:02;;;;;;;4.33;2.80;;;21.00;72.60;;;;;;10330668;28;20277;-62
2021/08/13 18:06:24;;;;;;;3.50;2.67;;;21.10;71.80;;;;;;10332995;28;20199;-61
2021/08/13 18:11:46;;;;;;;3.50;3.03;;;21.00;72.30;;;;;;10329380;28;20211;-61
2021/08/13 18:17:10;;;;;;;3.20;2.83;;;21.00;72.70;;;;;;10332724;28;20479;-61
2021/08/13 18:22:32;;;;;;;3.30;2.87;;;21.00;71.90;;;;;;10330789;28;20223;-61
2021/08/13 18:27:55;;;;;;;4.57;3.37;;;21.00;72.20;;;;;;10330253;28;20203;-60
2021/08/13 18:33:18;;;;;;;3.10;2.60;;;21.00;72.60;;;;;;10329830;28;20697;-59
2021/08/13 18:38:40;;;;;;;3.63;2.70;;;21.00;71.80;;;;;;10329707;28;20196;-61
2021/08/13 18:44:02;;;;;;;4.37;2.63;;;21.00;72.20;;;;;;10341253;28;20211;-63
2021/08/13 18:49:26;;;;;;;5.40;2.80;;;21.00;72.10;;;;;;10370324;28;20294;-58
2021/08/13 18:54:48;;;;;;;4.03;2.73;;;21.00;72.00;;;;;;10344363;28;20214;-57
2021/08/13 19:00:13;;;;;;;4.67;3.17;;;21.00;72.20;;;;;;10346142;28;20431;-61
2021/08/13 19:05:36;;;;;;;2.97;2.47;;;21.30;70.40;;;;;;10360346;28;20206;-60
2021/08/13 19:11:00;;;;;;;3.20;2.50;;;21.20;71.50;;;;;;10322840;28;20230;-60
2021/08/13 19:16:22;;;;;;;3.80;3.20;;;21.10;71.80;;;;;;10327363;28;20968;-59
2021/08/13 19:21:45;;;;;;;4.63;2.83;;;21.30;71.40;;;;;;10325143;28;20223;-62
2021/08/13 19:27:07;;;;;;;2.87;2.47;;;21.10;71.70;;;;;;10326593;28;20192;-58
2021/08/13 19:32:29;;;;;;;3.37;2.73;;;21.00;72.10;;;;;;10327969;28;20222;-59
2021/08/13 19:37:53;;;;;;;3.07;2.70;;;21.00;72.40;;;;;;10328440;28;20201;-59
2021/08/13 19:43:16;;;;;;;2.73;2.13;;;21.00;72.60;;;;;;10336400;28;20219;-58
2021/08/13 19:48:38;;;;;;;3.27;2.53;;;20.90;72.80;;;;;;10368217;28;20218;-59
2021/08/13 19:54:01;;;;;;;2.50;2.30;;;20.90;73.00;;;;;;10341635;28;20669;-60
2021/08/13 19:59:23;;;;;;;3.30;2.60;;;20.90;73.20;;;;;;10328551;28;20621;-59
2021/08/13 20:04:45;;;;;;;2.87;2.20;;;20.90;73.30;;;;;;10328154;28;20207;-60
2021/08/13 20:10:10;;;;;;;2.63;2.43;;;20.90;73.40;;;;;;10338893;28;20219;-60
2021/08/13 20:15:32;;;;;;;3.50;2.30;;;20.90;73.60;;;;;;10329388;28;20670;-57
2021/08/13 20:20:54;;;;;;;3.30;2.40;;;20.90;73.60;;;;;;10327586;28;20222;-60
2021/08/13 20:26:17;;;;;;;4.73;2.53;;;20.90;73.70;;;;;;10325511;28;20195;-60
2021/08/13 20:31:40;;;;;;;3.30;2.70;;;20.90;74.40;;;;;;10326640;28;20598;-60
2021/08/13 20:37:02;;;;;;;3.30;2.40;;;20.90;73.90;;;;;;10317395;28;20214;-60
2021/08/13 20:42:26;;;;;;;2.70;2.13;;;20.90;73.90;;;;;;10323525;28;21404;-60
2021/08/13 20:47:48;;;;;;;3.37;2.33;;;20.90;74.00;;;;;;10323283;28;20642;-60
2021/08/13 20:53:10;;;;;;;3.13;2.53;;;20.90;74.00;;;;;;10315019;28;20250;-60
2021/08/13 20:58:33;;;;;;;2.80;2.40;;;20.90;74.10;;;;;;10327189;28;20192;-60
2021/08/13 21:03:55;;;;;;;2.93;2.57;;;20.90;74.10;;;;;;10325387;28;20702;-59
2021/08/13 21:09:17;;;;;;;2.60;2.20;;;20.80;74.10;;;;;;10313342;28;20269;-59
2021/08/13 21:14:41;;;;;;;2.40;2.20;;;20.90;74.20;;;;;;10318616;28;20566;-60
2021/08/13 21:20:03;;;;;;;2.60;2.17;;;20.90;74.30;;;;;;10323885;28;20215;-60
2021/08/13 21:25:26;;;;;;;2.43;2.17;;;20.80;74.30;;;;;;10334276;28;20632;-60
2021/08/13 21:30:49;;;;;;;3.03;2.13;;;20.90;74.40;;;;;;10331601;28;20607;-59
2021/08/13 21:36:12;;;;;;;2.57;2.33;;;20.90;74.40;;;;;;10331571;28;20210;-59
2021/08/13 21:41:34;;;;;;;2.57;2.17;;;20.90;74.50;;;;;;10327429;28;20234;-58
2021/08/13 21:46:57;;;;;;;2.40;1.90;;;20.90;75.30;;;;;;10335188;28;20199;-60
2021/08/13 21:52:19;;;;;;;2.07;1.87;;;20.90;75.40;;;;;;10329701;28;20230;-60
2021/08/13 21:57:42;;;;;;;2.47;2.27;;;20.90;75.30;;;;;;10328519;28;20199;-60
2021/08/13 22:03:05;;;;;;;2.70;1.90;;;20.80;74.90;;;;;;10330932;28;20211;-58
2021/08/13 22:08:27;;;;;;;2.20;2.00;;;20.80;75.20;;;;;;10329691;28;20218;-58
2021/08/13 22:13:49;;;;;;;2.57;2.20;;;20.90;75.20;;;;;;10331727;28;20215;-58
2021/08/13 22:19:13;;;;;;;3.03;2.03;;;20.90;75.20;;;;;;10331894;28;20191;-60
2021/08/13 22:24:35;;;;;;;2.33;2.13;;;20.90;75.20;;;;;;10331478;28;20195;-60
2021/08/13 22:29:57;;;;;;;2.47;2.13;;;20.90;75.20;;;;;;10330494;28;20219;-60
2021/08/13 22:35:20;;;;;;;3.00;2.07;;;20.80;75.10;;;;;;10331406;28;20202;-60
2021/08/13 22:40:43;;;;;;;2.63;2.00;;;20.90;75.20;;;;;;10329480;28;20223;-60
2021/08/13 22:46:05;;;;;;;2.13;1.93;;;20.90;75.20;;;;;;10349692;28;20209;-60
2021/08/13 22:51:29;;;;;;;2.23;2.03;;;20.90;75.20;;;;;;10335762;28;20347;-60
2021/08/13 22:56:51;;;;;;;1.77;1.67;;;20.80;75.10;;;;;;10289718;28;20188;-60
2021/08/13 23:02:13;;;;;;;2.53;2.20;;;20.80;75.20;;;;;;10313157;28;20240;-60
2021/08/13 23:07:36;;;;;;;2.30;2.10;;;20.90;75.20;;;;;;10369052;28;20206;-60
2021/08/13 23:12:59;;;;;;;2.20;1.73;;;20.90;75.20;;;;;;10332075;28;20226;-59
2021/08/13 23:18:21;;;;;;;2.20;1.90;;;20.80;75.10;;;;;;10330705;28;20195;-60
2021/08/13 23:23:45;;;;;;;1.93;1.80;;;20.90;75.20;;;;;;10328101;28;20211;-60
2021/08/13 23:29:07;;;;;;;2.10;1.90;;;20.90;75.20;;;;;;10328470;28;20283;-60
2021/08/13 23:34:29;;;;;;;2.53;2.30;;;20.90;75.20;;;;;;10328816;28;20195;-59
2021/08/13 23:39:53;;;;;;;1.87;1.77;;;20.80;75.60;;;;;;10327602;28;20708;-60
2021/08/13 23:45:15;;;;;;;1.70;1.60;;;20.90;75.80;;;;;;10339202;28;20661;-60
2021/08/13 23:50:37;;;;;;;2.00;1.80;;;20.80;75.70;;;;;;10351810;28;20219;-58
2021/08/13 23:56:01;;;;;;;2.17;1.73;;;20.90;75.50;;;;;;10344965;28;20195;-58
